sensor_id;sensor_type;location;lat;lon;timestamp;pressure;altitude;pressure_sealevel;temperature;humidity
31538;BME280;18147;51.952;6.146;2022-08-16T00:02:16;100522.50;;;21.14;98.55
31538;BME280;18147;51.952;6.146;2022-08-16T00:04:41;100519.97;;;21.12;99.37
31538;BME280;18147;51.952;6.146;2022-08-16T00:07:07;100524.94;;;20.76;100.00
31538;BME280;18147;51.952;6.146;2022-08-16T00:09:32;100523.09;;;20.68;99.84
31538;BME280;18147;51.952;6.146;2022-08-16T00:11:58;100512.75;;;20.72;99.68
31538;BME280;18147;51.952;6.146;2022-08-16T00:14:29;100511.41;;;20.60;100.00
31538;BME280;18147;51.952;6.146;2022-08-16T00:16:56;100520.06;;;20.63;100.00
31538;BME280;18147;51.952;6.146;2022-08-16T00:19:25;100517.16;;;20.57;100.00
31538;BME280;18147;51.952;6.146;2022-08-16T00:21:51;100517.81;;;20.34;100.00
31538;BME280;18147;51.952;6.146;2022-08-16T00:24:17;100516.44;;;20.22;100.00
31538;BME280;18147;51.952;6.146;2022-08-16T00:26:44;100521.03;;;20.30;100.00
31538;BME280;18147;51.952;6.146;2022-08-16T00:29:14;100522.41;;;20.34;100.00
31538;BME280;18147;51.952;6.146;2022-08-16T00:31:40;100531.50;;;20.33;100.00
31538;BME280;18147;51.952;6.146;2022-08-16T00:34:06;100519.00;;;20.32;100.00
31538;BME280;18147;51.952;6.146;2022-08-16T00:36:32;100525.94;;;20.34;100.00
31538;BME280;18147;51.952;6.146;2022-08-16T00:38:57;100524.72;;;20.12;100.00
31538;BME280;18147;51.952;6.146;2022-08-16T00:41:23;100522.50;;;20.00;100.00
31538;BME280;18147;51.952;6.146;2022-08-16T00:43:49;100523.53;;;20.07;100.00
31538;BME280;18147;51.952;6.146;2022-08-16T00:48:49;100523.38;;;20.08;100.00
31538;BME280;18147;51.952;6.146;2022-08-16T00:51:18;100528.25;;;19.97;100.00
31538;BME280;18147;51.952;6.146;2022-08-16T00:53:48;100531.09;;;19.87;100.00
31538;BME280;18147;51.952;6.146;2022-08-16T00:56:18;100529.75;;;19.91;100.00
31538;BME280;18147;51.952;6.146;2022-08-16T00:58:46;100516.22;;;19.91;100.00
31538;BME280;18147;51.952;6.146;2022-08-16T01:01:13;100528.06;;;19.90;100.00
31538;BME280;18147;51.952;6.146;2022-08-16T01:03:41;100519.63;;;19.93;100.00
31538;BME280;18147;51.952;6.146;2022-08-16T01:06:09;100521.97;;;19.88;100.00
31538;BME280;18147;51.952;6.146;2022-08-16T01:08:36;100524.13;;;19.76;100.00
31538;BME280;18147;51.952;6.146;2022-08-16T01:11:03;100516.72;;;19.86;100.00
31538;BME280;18147;51.952;6.146;2022-08-16T01:13:31;100517.88;;;19.76;100.00
31538;BME280;18147;51.952;6.146;2022-08-16T01:16:04;100515.81;;;19.61;100.00
31538;BME280;18147;51.952;6.146;2022-08-16T01:18:34;100515.00;;;19.69;100.00
31538;BME280;18147;51.952;6.146;2022-08-16T01:26:13;100512.00;;;19.46;100.00
31538;BME280;18147;51.952;6.146;2022-08-16T01:28:40;100520.69;;;19.58;100.00
31538;BME280;18147;51.952;6.146;2022-08-16T01:31:08;100523.88;;;19.53;100.00
31538;BME280;18147;51.952;6.146;2022-08-16T01:33:34;100522.00;;;19.54;100.00
31538;BME280;18147;51.952;6.146;2022-08-16T01:36:06;100517.59;;;19.53;100.00
31538;BME280;18147;51.952;6.146;2022-08-16T01:38:34;100512.13;;;19.36;100.00
31538;BME280;18147;51.952;6.146;2022-08-16T01:41:07;100510.50;;;19.52;100.00
31538;BME280;18147;51.952;6.146;2022-08-16T01:43:35;100511.56;;;19.59;100.00
31538;BME280;18147;51.952;6.146;2022-08-16T01:46:04;100513.50;;;19.40;100.00
31538;BME280;18147;51.952;6.146;2022-08-16T01:48:31;100514.31;;;19.33;100.00
31538;BME280;18147;51.952;6.146;2022-08-16T01:50:59;100519.72;;;19.33;100.00
31538;BME280;18147;51.952;6.146;2022-08-16T01:53:25;100528.63;;;19.25;100.00
31538;BME280;18147;51.952;6.146;2022-08-16T01:56:00;100524.34;;;19.14;100.00
31538;BME280;18147;51.952;6.146;2022-08-16T01:58:28;100523.16;;;19.09;100.00
31538;BME280;18147;51.952;6.146;2022-08-16T02:00:53;100524.66;;;19.11;100.00
31538;BME280;18147;51.952;6.146;2022-08-16T02:03:19;100529.41;;;19.18;100.00
31538;BME280;18147;51.952;6.146;2022-08-16T02:05:44;100528.56;;;19.17;100.00
31538;BME280;18147;51.952;6.146;2022-08-16T02:08:10;100531.63;;;19.14;100.00
31538;BME280;18147;51.952;6.146;2022-08-16T02:10:36;100532.09;;;19.09;100.00
31538;BME280;18147;51.952;6.146;2022-08-16T02:13:04;100529.69;;;18.98;100.00
31538;BME280;18147;51.952;6.146;2022-08-16T02:15:35;100531.25;;;18.83;100.00
31538;BME280;18147;51.952;6.146;2022-08-16T02:18:02;100525.50;;;18.78;100.00
31538;BME280;18147;51.952;6.146;2022-08-16T02:20:30;100528.22;;;18.86;100.00
31538;BME280;18147;51.952;6.146;2022-08-16T02:22:58;100534.34;;;18.88;100.00
31538;BME280;18147;51.952;6.146;2022-08-16T02:25:24;100517.13;;;18.89;100.00
31538;BME280;18147;51.952;6.146;2022-08-16T02:27:50;100515.25;;;18.89;100.00
31538;BME280;18147;51.952;6.146;2022-08-16T02:30:18;100515.53;;;18.78;100.00
31538;BME280;18147;51.952;6.146;2022-08-16T02:32:46;100518.84;;;18.72;100.00
31538;BME280;18147;51.952;6.146;2022-08-16T02:35:12;100507.34;;;18.70;100.00
31538;BME280;18147;51.952;6.146;2022-08-16T02:37:39;100509.16;;;18.44;100.00
31538;BME280;18147;51.952;6.146;2022-08-16T02:40:05;100509.16;;;18.44;100.00
31538;BME280;18147;51.952;6.146;2022-08-16T02:42:32;100506.44;;;18.44;100.00
31538;BME280;18147;51.952;6.146;2022-08-16T02:44:58;100510.75;;;18.54;100.00
31538;BME280;18147;51.952;6.146;2022-08-16T02:47:23;100500.88;;;18.45;100.00
31538;BME280;18147;51.952;6.146;2022-08-16T02:49:49;100496.16;;;18.47;100.00
31538;BME280;18147;51.952;6.146;2022-08-16T02:52:15;100500.88;;;18.45;100.00
31538;BME280;18147;51.952;6.146;2022-08-16T02:54:41;100510.59;;;18.56;100.00
31538;BME280;18147;51.952;6.146;2022-08-16T02:57:06;100504.81;;;18.51;100.00
31538;BME280;18147;51.952;6.146;2022-08-16T02:59:32;100506.19;;;18.37;100.00
31538;BME280;18147;51.952;6.146;2022-08-16T03:01:58;100507.53;;;18.15;100.00
31538;BME280;18147;51.952;6.146;2022-08-16T03:04:28;100511.75;;;17.82;100.00
31538;BME280;18147;51.952;6.146;2022-08-16T03:06:54;100511.75;;;17.82;100.00
31538;BME280;18147;51.952;6.146;2022-08-16T03:09:28;100511.09;;;17.98;100.00
31538;BME280;18147;51.952;6.146;2022-08-16T03:11:54;100508.06;;;18.01;100.00
31538;BME280;18147;51.952;6.146;2022-08-16T03:14:20;100510.59;;;17.84;100.00
31538;BME280;18147;51.952;6.146;2022-08-16T03:16:46;100509.81;;;17.92;100.00
31538;BME280;18147;51.952;6.146;2022-08-16T03:19:11;100507.81;;;17.76;100.00
31538;BME280;18147;51.952;6.146;2022-08-16T03:21:37;100502.59;;;17.47;100.00
31538;BME280;18147;51.952;6.146;2022-08-16T03:24:03;100504.28;;;17.48;100.00
31538;BME280;18147;51.952;6.146;2022-08-16T03:26:28;100508.22;;;17.54;100.00
31538;BME280;18147;51.952;6.146;2022-08-16T03:28:54;100510.56;;;17.39;100.00
31538;BME280;18147;51.952;6.146;2022-08-16T03:31:20;100514.34;;;17.46;100.00
31538;BME280;18147;51.952;6.146;2022-08-16T03:33:45;100515.13;;;17.56;100.00
31538;BME280;18147;51.952;6.146;2022-08-16T03:36:11;100516.09;;;17.65;100.00
31538;BME280;18147;51.952;6.146;2022-08-16T03:38:39;100520.44;;;17.48;100.00
31538;BME280;18147;51.952;6.146;2022-08-16T03:41:07;100509.56;;;17.40;100.00
31538;BME280;18147;51.952;6.146;2022-08-16T03:43:34;100509.75;;;17.56;100.00
31538;BME280;18147;51.952;6.146;2022-08-16T03:46:01;100509.00;;;17.64;100.00
31538;BME280;18147;51.952;6.146;2022-08-16T03:48:34;100504.06;;;17.59;100.00
31538;BME280;18147;51.952;6.146;2022-08-16T03:51:04;100508.88;;;17.38;100.00
31538;BME280;18147;51.952;6.146;2022-08-16T03:53:34;100506.53;;;17.53;100.00
31538;BME280;18147;51.952;6.146;2022-08-16T03:56:00;100512.09;;;17.42;100.00
31538;BME280;18147;51.952;6.146;2022-08-16T03:58:25;100507.00;;;17.39;100.00
31538;BME280;18147;51.952;6.146;2022-08-16T04:00:51;100510.72;;;17.38;100.00
31538;BME280;18147;51.952;6.146;2022-08-16T04:03:19;100510.75;;;17.28;100.00
31538;BME280;18147;51.952;6.146;2022-08-16T04:05:46;100516.88;;;17.20;100.00
31538;BME280;18147;51.952;6.146;2022-08-16T04:08:16;100519.34;;;17.04;100.00
31538;BME280;18147;51.952;6.146;2022-08-16T04:10:43;100525.84;;;17.11;100.00
31538;BME280;18147;51.952;6.146;2022-08-16T04:13:09;100528.88;;;16.98;100.00
31538;BME280;18147;51.952;6.146;2022-08-16T04:15:35;100531.19;;;16.83;100.00
31538;BME280;18147;51.952;6.146;2022-08-16T04:18:10;100528.72;;;17.00;100.00
31538;BME280;18147;51.952;6.146;2022-08-16T04:20:36;100536.09;;;17.07;100.00
31538;BME280;18147;51.952;6.146;2022-08-16T04:23:04;100546.34;;;17.22;100.00
31538;BME280;18147;51.952;6.146;2022-08-16T04:25:33;100546.34;;;17.22;100.00
31538;BME280;18147;51.952;6.146;2022-08-16T04:27:59;100548.19;;;17.31;100.00
31538;BME280;18147;51.952;6.146;2022-08-16T04:30:24;100549.34;;;17.28;100.00
31538;BME280;18147;51.952;6.146;2022-08-16T04:32:52;100558.56;;;17.16;100.00
31538;BME280;18147;51.952;6.146;2022-08-16T04:35:21;100554.56;;;17.30;100.00
31538;BME280;18147;51.952;6.146;2022-08-16T04:37:48;100553.50;;;17.13;100.00
31538;BME280;18147;51.952;6.146;2022-08-16T04:40:21;100558.78;;;17.42;100.00
31538;BME280;18147;51.952;6.146;2022-08-16T04:42:48;100558.22;;;17.39;100.00
31538;BME280;18147;51.952;6.146;2022-08-16T04:45:15;100556.53;;;17.65;100.00
31538;BME280;18147;51.952;6.146;2022-08-16T04:47:42;100565.13;;;17.88;100.00
31538;BME280;18147;51.952;6.146;2022-08-16T04:50:17;100570.25;;;17.72;100.00
31538;BME280;18147;51.952;6.146;2022-08-16T04:53:05;100575.13;;;17.78;100.00
31538;BME280;18147;51.952;6.146;2022-08-16T04:55:33;100566.75;;;17.99;100.00
31538;BME280;18147;51.952;6.146;2022-08-16T04:57:59;100578.88;;;18.13;100.00
31538;BME280;18147;51.952;6.146;2022-08-16T05:00:30;100586.34;;;18.19;100.00
31538;BME280;18147;51.952;6.146;2022-08-16T05:03:04;100582.75;;;18.28;100.00
31538;BME280;18147;51.952;6.146;2022-08-16T05:05:31;100582.56;;;18.47;100.00
31538;BME280;18147;51.952;6.146;2022-08-16T05:07:58;100589.44;;;18.59;100.00
31538;BME280;18147;51.952;6.146;2022-08-16T05:10:23;100588.34;;;18.52;100.00
31538;BME280;18147;51.952;6.146;2022-08-16T05:12:50;100584.69;;;18.71;100.00
31538;BME280;18147;51.952;6.146;2022-08-16T05:15:15;100583.44;;;18.83;100.00
31538;BME280;18147;51.952;6.146;2022-08-16T05:17:41;100592.34;;;19.02;100.00
31538;BME280;18147;51.952;6.146;2022-08-16T05:20:11;100591.94;;;19.14;100.00
31538;BME280;18147;51.952;6.146;2022-08-16T05:22:38;100591.25;;;19.38;100.00
31538;BME280;18147;51.952;6.146;2022-08-16T05:25:06;100588.63;;;19.55;100.00
31538;BME280;18147;51.952;6.146;2022-08-16T05:27:32;100591.41;;;19.63;100.00
31538;BME280;18147;51.952;6.146;2022-08-16T05:29:58;100590.13;;;19.57;100.00
31538;BME280;18147;51.952;6.146;2022-08-16T05:32:23;100598.69;;;19.71;100.00
31538;BME280;18147;51.952;6.146;2022-08-16T05:34:49;100592.13;;;19.81;100.00
31538;BME280;18147;51.952;6.146;2022-08-16T05:37:15;100593.25;;;20.05;100.00
31538;BME280;18147;51.952;6.146;2022-08-16T05:39:40;100594.03;;;19.89;100.00
31538;BME280;18147;51.952;6.146;2022-08-16T05:42:06;100597.31;;;19.66;100.00
31538;BME280;18147;51.952;6.146;2022-08-16T05:44:32;100591.16;;;19.90;100.00
31538;BME280;18147;51.952;6.146;2022-08-16T05:46:59;100595.47;;;20.09;100.00
31538;BME280;18147;51.952;6.146;2022-08-16T05:49:27;100590.72;;;20.11;100.00
31538;BME280;18147;51.952;6.146;2022-08-16T05:51:55;100588.53;;;20.15;100.00
31538;BME280;18147;51.952;6.146;2022-08-16T05:54:22;100586.53;;;20.25;100.00
31538;BME280;18147;51.952;6.146;2022-08-16T05:56:48;100587.44;;;20.66;100.00
31538;BME280;18147;51.952;6.146;2022-08-16T05:59:16;100591.00;;;20.59;100.00
31538;BME280;18147;51.952;6.146;2022-08-16T06:01:42;100590.50;;;20.80;100.00
31538;BME280;18147;51.952;6.146;2022-08-16T06:04:12;100602.50;;;21.10;100.00
31538;BME280;18147;51.952;6.146;2022-08-16T06:06:44;100607.56;;;21.13;100.00
31538;BME280;18147;51.952;6.146;2022-08-16T06:09:12;100597.38;;;21.23;98.87
31538;BME280;18147;51.952;6.146;2022-08-16T06:11:40;100599.69;;;21.67;99.06
31538;BME280;18147;51.952;6.146;2022-08-16T06:14:06;100603.13;;;21.53;96.87
31538;BME280;18147;51.952;6.146;2022-08-16T06:16:35;100604.03;;;21.84;95.35
31538;BME280;18147;51.952;6.146;2022-08-16T06:19:01;100606.69;;;21.92;94.65
31538;BME280;18147;51.952;6.146;2022-08-16T06:21:27;100604.78;;;22.01;95.64
31538;BME280;18147;51.952;6.146;2022-08-16T06:23:59;100606.59;;;22.09;94.44
31538;BME280;18147;51.952;6.146;2022-08-16T06:26:25;100604.69;;;22.26;94.10
31538;BME280;18147;51.952;6.146;2022-08-16T06:28:50;100609.00;;;22.12;94.08
31538;BME280;18147;51.952;6.146;2022-08-16T06:31:21;100602.06;;;22.09;94.86
31538;BME280;18147;51.952;6.146;2022-08-16T06:33:47;100610.34;;;22.70;90.77
31538;BME280;18147;51.952;6.146;2022-08-16T06:36:16;100605.00;;;22.54;91.14
31538;BME280;18147;51.952;6.146;2022-08-16T06:38:51;100608.59;;;23.00;88.06
31538;BME280;18147;51.952;6.146;2022-08-16T06:41:21;100609.97;;;22.96;87.76
31538;BME280;18147;51.952;6.146;2022-08-16T06:43:47;100602.47;;;23.50;86.06
31538;BME280;18147;51.952;6.146;2022-08-16T06:46:27;100609.91;;;23.71;84.63
31538;BME280;18147;51.952;6.146;2022-08-16T06:48:53;100609.06;;;23.71;81.76
31538;BME280;18147;51.952;6.146;2022-08-16T06:51:19;100610.09;;;23.85;81.67
31538;BME280;18147;51.952;6.146;2022-08-16T06:53:45;100600.31;;;24.26;80.37
31538;BME280;18147;51.952;6.146;2022-08-16T06:56:10;100599.38;;;24.19;79.53
31538;BME280;18147;51.952;6.146;2022-08-16T06:58:51;100598.72;;;24.96;76.66
31538;BME280;18147;51.952;6.146;2022-08-16T07:01:21;100610.25;;;25.20;77.97
31538;BME280;18147;51.952;6.146;2022-08-16T07:03:49;100602.81;;;25.35;74.07
31538;BME280;18147;51.952;6.146;2022-08-16T07:06:15;100604.06;;;25.33;73.94
31538;BME280;18147;51.952;6.146;2022-08-16T07:08:43;100598.38;;;26.03;72.53
31538;BME280;18147;51.952;6.146;2022-08-16T07:11:09;100611.13;;;25.83;71.90
31538;BME280;18147;51.952;6.146;2022-08-16T07:13:35;100601.78;;;25.36;73.18
31538;BME280;18147;51.952;6.146;2022-08-16T07:16:03;100609.28;;;25.27;73.21
31538;BME280;18147;51.952;6.146;2022-08-16T07:18:30;100608.81;;;25.52;72.06
31538;BME280;18147;51.952;6.146;2022-08-16T07:20:56;100620.34;;;26.30;70.30
31538;BME280;18147;51.952;6.146;2022-08-16T07:23:24;100622.34;;;26.63;67.52
31538;BME280;18147;51.952;6.146;2022-08-16T07:25:54;100623.81;;;26.58;68.76
31538;BME280;18147;51.952;6.146;2022-08-16T07:28:21;100627.28;;;26.26;67.45
31538;BME280;18147;51.952;6.146;2022-08-16T07:30:48;100628.50;;;26.17;70.66
31538;BME280;18147;51.952;6.146;2022-08-16T07:33:26;100645.47;;;25.36;72.92
31538;BME280;18147;51.952;6.146;2022-08-16T07:35:51;100635.75;;;25.27;73.01
31538;BME280;18147;51.952;6.146;2022-08-16T07:38:18;100634.91;;;25.89;71.86
31538;BME280;18147;51.952;6.146;2022-08-16T07:40:53;100635.03;;;26.97;67.51
31538;BME280;18147;51.952;6.146;2022-08-16T07:43:20;100638.56;;;26.64;66.96
31538;BME280;18147;51.952;6.146;2022-08-16T07:45:46;100637.09;;;26.68;68.34
31538;BME280;18147;51.952;6.146;2022-08-16T07:48:12;100638.38;;;26.72;65.87
31538;BME280;18147;51.952;6.146;2022-08-16T07:50:41;100642.41;;;27.29;68.19
31538;BME280;18147;51.952;6.146;2022-08-16T07:53:06;100639.88;;;26.88;67.94
31538;BME280;18147;51.952;6.146;2022-08-16T07:55:32;100647.56;;;28.04;64.65
31538;BME280;18147;51.952;6.146;2022-08-16T07:57:58;100647.00;;;27.75;64.61
31538;BME280;18147;51.952;6.146;2022-08-16T08:00:24;100640.53;;;27.17;66.39
31538;BME280;18147;51.952;6.146;2022-08-16T08:02:49;100648.53;;;27.51;63.62
31538;BME280;18147;51.952;6.146;2022-08-16T08:05:19;100644.66;;;27.85;61.90
31538;BME280;18147;51.952;6.146;2022-08-16T08:07:45;100648.56;;;28.16;62.49
31538;BME280;18147;51.952;6.146;2022-08-16T08:10:10;100650.41;;;27.77;62.76
31538;BME280;18147;51.952;6.146;2022-08-16T08:12:36;100652.94;;;27.39;63.17
31538;BME280;18147;51.952;6.146;2022-08-16T08:15:05;100653.81;;;27.33;63.39
31538;BME280;18147;51.952;6.146;2022-08-16T08:17:31;100663.47;;;27.49;64.14
31538;BME280;18147;51.952;6.146;2022-08-16T08:19:58;100659.03;;;26.88;62.79
31538;BME280;18147;51.952;6.146;2022-08-16T08:22:24;100666.63;;;27.59;63.74
31538;BME280;18147;51.952;6.146;2022-08-16T08:24:52;100665.94;;;27.97;63.53
31538;BME280;18147;51.952;6.146;2022-08-16T08:27:17;100674.69;;;28.32;60.01
31538;BME280;18147;51.952;6.146;2022-08-16T08:29:43;100678.69;;;28.29;58.01
31538;BME280;18147;51.952;6.146;2022-08-16T08:32:12;100676.72;;;28.50;60.07
31538;BME280;18147;51.952;6.146;2022-08-16T08:34:37;100676.09;;;27.83;58.72
31538;BME280;18147;51.952;6.146;2022-08-16T08:37:03;100686.25;;;27.29;61.09
31538;BME280;18147;51.952;6.146;2022-08-16T08:39:34;100674.91;;;28.24;58.04
31538;BME280;18147;51.952;6.146;2022-08-16T08:42:02;100682.13;;;28.05;57.61
31538;BME280;18147;51.952;6.146;2022-08-16T08:44:30;100683.97;;;28.24;57.21
31538;BME280;18147;51.952;6.146;2022-08-16T08:46:59;100684.34;;;28.41;58.88
31538;BME280;18147;51.952;6.146;2022-08-16T08:49:25;100684.94;;;28.50;58.61
31538;BME280;18147;51.952;6.146;2022-08-16T08:51:51;100682.97;;;28.12;59.07
31538;BME280;18147;51.952;6.146;2022-08-16T08:54:16;100686.94;;;28.23;59.51
31538;BME280;18147;51.952;6.146;2022-08-16T08:56:43;100683.06;;;27.79;58.85
31538;BME280;18147;51.952;6.146;2022-08-16T08:59:21;100682.22;;;27.45;58.06
31538;BME280;18147;51.952;6.146;2022-08-16T09:01:48;100681.81;;;27.61;60.79
31538;BME280;18147;51.952;6.146;2022-08-16T09:04:15;100688.97;;;27.49;59.72
31538;BME280;18147;51.952;6.146;2022-08-16T09:06:42;100687.50;;;27.73;59.95
31538;BME280;18147;51.952;6.146;2022-08-16T09:09:08;100687.41;;;28.13;59.54
31538;BME280;18147;51.952;6.146;2022-08-16T09:11:35;100686.44;;;27.68;59.22
31538;BME280;18147;51.952;6.146;2022-08-16T09:14:02;100695.78;;;28.25;59.93
31538;BME280;18147;51.952;6.146;2022-08-16T09:16:28;100696.78;;;27.39;60.06
31538;BME280;18147;51.952;6.146;2022-08-16T09:18:54;100691.72;;;27.43;60.01
31538;BME280;18147;51.952;6.146;2022-08-16T09:21:20;100691.38;;;28.24;58.66
31538;BME280;18147;51.952;6.146;2022-08-16T09:23:46;100698.06;;;28.48;58.07
31538;BME280;18147;51.952;6.146;2022-08-16T09:26:13;100699.78;;;28.42;56.55
31538;BME280;18147;51.952;6.146;2022-08-16T09:28:43;100693.47;;;28.28;56.95
31538;BME280;18147;51.952;6.146;2022-08-16T09:31:20;100695.03;;;27.98;54.07
31538;BME280;18147;51.952;6.146;2022-08-16T09:33:46;100690.78;;;28.08;54.90
31538;BME280;18147;51.952;6.146;2022-08-16T09:36:11;100693.69;;;28.27;54.15
31538;BME280;18147;51.952;6.146;2022-08-16T09:38:37;100684.16;;;28.29;54.52
31538;BME280;18147;51.952;6.146;2022-08-16T09:41:07;100686.91;;;28.29;52.51
31538;BME280;18147;51.952;6.146;2022-08-16T09:43:34;100695.03;;;28.56;52.85
31538;BME280;18147;51.952;6.146;2022-08-16T09:46:02;100683.19;;;28.62;52.43
31538;BME280;18147;51.952;6.146;2022-08-16T09:48:28;100677.25;;;29.03;53.51
31538;BME280;18147;51.952;6.146;2022-08-16T09:50:55;100683.81;;;29.02;52.37
31538;BME280;18147;51.952;6.146;2022-08-16T09:53:21;100683.97;;;28.24;51.68
31538;BME280;18147;51.952;6.146;2022-08-16T09:55:50;100681.31;;;28.56;50.96
31538;BME280;18147;51.952;6.146;2022-08-16T09:58:21;100675.34;;;28.65;50.95
31538;BME280;18147;51.952;6.146;2022-08-16T10:00:48;100673.09;;;28.94;50.39
31538;BME280;18147;51.952;6.146;2022-08-16T10:03:15;100686.59;;;28.57;49.05
31538;BME280;18147;51.952;6.146;2022-08-16T10:05:41;100682.56;;;28.91;49.54
31538;BME280;18147;51.952;6.146;2022-08-16T10:08:06;100688.94;;;28.85;49.37
31538;BME280;18147;51.952;6.146;2022-08-16T10:10:33;100681.84;;;28.78;49.19
31538;BME280;18147;51.952;6.146;2022-08-16T10:12:59;100691.09;;;29.15;49.20
31538;BME280;18147;51.952;6.146;2022-08-16T10:15:44;100692.06;;;29.27;47.00
31538;BME280;18147;51.952;6.146;2022-08-16T10:18:11;100692.91;;;29.03;46.02
31538;BME280;18147;51.952;6.146;2022-08-16T10:20:43;100684.66;;;29.03;46.55
31538;BME280;18147;51.952;6.146;2022-08-16T10:23:14;100695.09;;;28.81;47.81
31538;BME280;18147;51.952;6.146;2022-08-16T10:25:42;100700.22;;;28.71;48.41
31538;BME280;18147;51.952;6.146;2022-08-16T10:28:08;100696.81;;;28.82;47.10
31538;BME280;18147;51.952;6.146;2022-08-16T10:30:34;100695.75;;;28.76;48.87
31538;BME280;18147;51.952;6.146;2022-08-16T10:33:00;100684.94;;;29.20;47.79
31538;BME280;18147;51.952;6.146;2022-08-16T10:35:25;100695.66;;;28.96;45.84
31538;BME280;18147;51.952;6.146;2022-08-16T10:37:51;100701.66;;;29.18;47.42
31538;BME280;18147;51.952;6.146;2022-08-16T10:40:18;100702.84;;;28.90;46.94
31538;BME280;18147;51.952;6.146;2022-08-16T10:42:44;100704.69;;;28.65;49.84
31538;BME280;18147;51.952;6.146;2022-08-16T10:45:10;100703.81;;;29.09;48.33
31538;BME280;18147;51.952;6.146;2022-08-16T10:47:35;100704.69;;;29.60;48.83
31538;BME280;18147;51.952;6.146;2022-08-16T10:50:05;100702.34;;;29.63;46.25
31538;BME280;18147;51.952;6.146;2022-08-16T10:52:31;100702.66;;;29.92;48.45
31538;BME280;18147;51.952;6.146;2022-08-16T10:54:58;100696.69;;;29.58;46.51
31538;BME280;18147;51.952;6.146;2022-08-16T10:57:24;100703.94;;;29.71;47.46
31538;BME280;18147;51.952;6.146;2022-08-16T10:59:51;100704.84;;;29.40;47.98
31538;BME280;18147;51.952;6.146;2022-08-16T11:02:17;100710.56;;;29.13;47.58
31538;BME280;18147;51.952;6.146;2022-08-16T11:04:44;100705.81;;;29.52;47.93
31538;BME280;18147;51.952;6.146;2022-08-16T11:07:09;100708.22;;;29.67;48.79
31538;BME280;18147;51.952;6.146;2022-08-16T11:09:35;100704.66;;;29.85;47.95
31538;BME280;18147;51.952;6.146;2022-08-16T11:12:00;100705.66;;;29.90;46.52
31538;BME280;18147;51.952;6.146;2022-08-16T11:14:26;100707.88;;;30.00;45.97
31538;BME280;18147;51.952;6.146;2022-08-16T11:16:51;100709.72;;;29.88;47.36
31538;BME280;18147;51.952;6.146;2022-08-16T11:19:17;100708.53;;;29.59;50.23
31538;BME280;18147;51.952;6.146;2022-08-16T11:21:43;100705.75;;;30.02;47.03
31538;BME280;18147;51.952;6.146;2022-08-16T11:24:09;100707.66;;;30.02;47.87
31538;BME280;18147;51.952;6.146;2022-08-16T11:26:36;100706.97;;;30.06;47.64
31538;BME280;18147;51.952;6.146;2022-08-16T11:29:02;100701.09;;;30.21;46.00
31538;BME280;18147;51.952;6.146;2022-08-16T11:31:28;100702.88;;;30.15;45.82
31538;BME280;18147;51.952;6.146;2022-08-16T11:33:53;100693.59;;;30.10;44.80
31538;BME280;18147;51.952;6.146;2022-08-16T11:36:19;100698.38;;;30.69;45.08
31538;BME280;18147;51.952;6.146;2022-08-16T11:38:45;100703.00;;;30.87;45.36
31538;BME280;18147;51.952;6.146;2022-08-16T11:41:11;100704.28;;;30.55;46.66
31538;BME280;18147;51.952;6.146;2022-08-16T11:43:39;100712.63;;;30.11;45.35
31538;BME280;18147;51.952;6.146;2022-08-16T11:46:11;100698.81;;;30.66;45.49
31538;BME280;18147;51.952;6.146;2022-08-16T11:48:37;100709.72;;;30.91;46.38
31538;BME280;18147;51.952;6.146;2022-08-16T11:51:03;100717.81;;;30.75;45.29
31538;BME280;18147;51.952;6.146;2022-08-16T11:53:30;100724.19;;;30.87;43.42
31538;BME280;18147;51.952;6.146;2022-08-16T11:55:58;100716.59;;;30.71;42.75
31538;BME280;18147;51.952;6.146;2022-08-16T11:58:26;100726.56;;;30.53;42.88
31538;BME280;18147;51.952;6.146;2022-08-16T12:00:54;100724.94;;;30.27;44.40
31538;BME280;18147;51.952;6.146;2022-08-16T12:03:21;100726.19;;;29.70;45.59
31538;BME280;18147;51.952;6.146;2022-08-16T12:05:48;100719.03;;;30.05;45.33
31538;BME280;18147;51.952;6.146;2022-08-16T12:08:14;100727.53;;;30.22;44.17
31538;BME280;18147;51.952;6.146;2022-08-16T12:10:41;100722.19;;;30.27;44.68
31538;BME280;18147;51.952;6.146;2022-08-16T12:13:07;100730.38;;;30.15;45.21
31538;BME280;18147;51.952;6.146;2022-08-16T12:15:33;100733.19;;;30.09;44.89
31538;BME280;18147;51.952;6.146;2022-08-16T12:17:59;100731.03;;;29.92;42.91
31538;BME280;18147;51.952;6.146;2022-08-16T12:20:29;100734.81;;;30.16;42.71
31538;BME280;18147;51.952;6.146;2022-08-16T12:22:54;100737.44;;;29.86;44.37
31538;BME280;18147;51.952;6.146;2022-08-16T12:25:22;100738.72;;;29.34;45.93
31538;BME280;18147;51.952;6.146;2022-08-16T12:27:49;100744.19;;;29.09;45.43
31538;BME280;18147;51.952;6.146;2022-08-16T12:30:18;100746.16;;;28.95;46.95
31538;BME280;18147;51.952;6.146;2022-08-16T12:32:44;100736.84;;;29.03;45.99
31538;BME280;18147;51.952;6.146;2022-08-16T12:35:14;100742.94;;;29.05;47.38
31538;BME280;18147;51.952;6.146;2022-08-16T12:37:41;100743.16;;;29.35;46.26
31538;BME280;18147;51.952;6.146;2022-08-16T12:40:09;100741.47;;;29.34;45.31
31538;BME280;18147;51.952;6.146;2022-08-16T12:42:35;100745.56;;;29.50;45.49
31538;BME280;18147;51.952;6.146;2022-08-16T12:45:03;100746.25;;;29.70;46.55
31538;BME280;18147;51.952;6.146;2022-08-16T12:47:30;100747.81;;;29.34;46.38
31538;BME280;18147;51.952;6.146;2022-08-16T12:50:15;100755.03;;;29.29;48.26
31538;BME280;18147;51.952;6.146;2022-08-16T12:52:40;100755.63;;;29.31;47.17
31538;BME280;18147;51.952;6.146;2022-08-16T12:55:07;100756.22;;;29.39;47.26